sensor_id;sensor_type;location;lat;lon;timestamp;temperature;humidity
54796;DHT22;40693;43.884;20.340;2024-01-30T00:00:15;52.10;2227.20
54796;DHT22;40693;43.884;20.340;2024-01-30T00:02:41;52.10;2227.20
54796;DHT22;40693;43.884;20.340;2024-01-30T00:05:08;52.10;2227.20
54796;DHT22;40693;43.884;20.340;2024-01-30T00:07:34;52.10;2227.20
54796;DHT22;40693;43.884;20.340;2024-01-30T00:10:00;52.00;2227.20
54796;DHT22;40693;43.884;20.340;2024-01-30T00:12:25;52.00;2227.20
54796;DHT22;40693;43.884;20.340;2024-01-30T00:14:51;52.00;2227.20
54796;DHT22;40693;43.884;20.340;2024-01-30T00:17:17;52.00;2227.20
54796;DHT22;40693;43.884;20.340;2024-01-30T00:19:44;52.00;2227.20
54796;DHT22;40693;43.884;20.340;2024-01-30T00:22:10;52.00;2227.20
54796;DHT22;40693;43.884;20.340;2024-01-30T00:24:36;51.90;2227.20
54796;DHT22;40693;43.884;20.340;2024-01-30T00:27:01;51.90;2227.20
54796;DHT22;40693;43.884;20.340;2024-01-30T00:29:27;51.90;2227.20
54796;DHT22;40693;43.884;20.340;2024-01-30T00:31:56;51.90;2227.20
54796;DHT22;40693;43.884;20.340;2024-01-30T00:34:22;51.90;2227.20
54796;DHT22;40693;43.884;20.340;2024-01-30T00:36:48;51.90;2227.20
54796;DHT22;40693;43.884;20.340;2024-01-30T00:39:13;51.90;2227.20
54796;DHT22;40693;43.884;20.340;2024-01-30T00:41:41;51.80;2227.20
54796;DHT22;40693;43.884;20.340;2024-01-30T00:44:07;51.70;2227.20
54796;DHT22;40693;43.884;20.340;2024-01-30T00:46:32;51.70;2227.20
54796;DHT22;40693;43.884;20.340;2024-01-30T00:48:58;51.70;2227.20
54796;DHT22;40693;43.884;20.340;2024-01-30T00:51:24;51.70;2227.20
54796;DHT22;40693;43.884;20.340;2024-01-30T00:53:50;51.70;2227.20
54796;DHT22;40693;43.884;20.340;2024-01-30T00:56:16;51.70;2227.20
54796;DHT22;40693;43.884;20.340;2024-01-30T00:58:43;51.70;2227.20
54796;DHT22;40693;43.884;20.340;2024-01-30T01:01:09;51.70;2227.20
54796;DHT22;40693;43.884;20.340;2024-01-30T01:03:35;51.70;2227.20
54796;DHT22;40693;43.884;20.340;2024-01-30T01:06:01;51.60;2227.20
54796;DHT22;40693;43.884;20.340;2024-01-30T01:08:26;51.60;2227.20
54796;DHT22;40693;43.884;20.340;2024-01-30T01:10:52;51.60;2227.20
54796;DHT22;40693;43.884;20.340;2024-01-30T01:13:18;51.60;2227.20
54796;DHT22;40693;43.884;20.340;2024-01-30T01:15:43;51.60;2227.20
54796;DHT22;40693;43.884;20.340;2024-01-30T01:18:09;51.60;2227.20
54796;DHT22;40693;43.884;20.340;2024-01-30T01:20:35;51.50;2227.20
54796;DHT22;40693;43.884;20.340;2024-01-30T01:23:01;51.50;2227.20
54796;DHT22;40693;43.884;20.340;2024-01-30T01:25:26;51.50;2227.20
54796;DHT22;40693;43.884;20.340;2024-01-30T01:27:52;51.40;2227.20
54796;DHT22;40693;43.884;20.340;2024-01-30T01:30:18;51.40;2227.20
54796;DHT22;40693;43.884;20.340;2024-01-30T01:32:50;51.30;2227.20
54796;DHT22;40693;43.884;20.340;2024-01-30T01:35:23;51.30;2227.20
54796;DHT22;40693;43.884;20.340;2024-01-30T01:37:53;51.30;2227.20
54796;DHT22;40693;43.884;20.340;2024-01-30T01:40:24;51.30;2227.20
54796;DHT22;40693;43.884;20.340;2024-01-30T01:42:53;51.20;2227.20
54796;DHT22;40693;43.884;20.340;2024-01-30T01:45:19;51.20;2227.20
54796;DHT22;40693;43.884;20.340;2024-01-30T01:47:48;51.20;2227.20
54796;DHT22;40693;43.884;20.340;2024-01-30T01:50:16;51.20;2227.20
54796;DHT22;40693;43.884;20.340;2024-01-30T01:52:47;26.50;2201.60
54796;DHT22;40693;43.884;20.340;2024-01-30T01:55:14;26.50;2201.60
54796;DHT22;40693;43.884;20.340;2024-01-30T01:57:41;51.20;2227.20
54796;DHT22;40693;43.884;20.340;2024-01-30T02:00:08;51.20;2227.20
54796;DHT22;40693;43.884;20.340;2024-01-30T02:02:36;51.20;2227.20
54796;DHT22;40693;43.884;20.340;2024-01-30T02:05:02;51.20;2227.20
54796;DHT22;40693;43.884;20.340;2024-01-30T02:07:29;26.50;2201.60
54796;DHT22;40693;43.884;20.340;2024-01-30T02:09:55;26.50;2201.60
54796;DHT22;40693;43.884;20.340;2024-01-30T02:12:21;26.50;2201.60
54796;DHT22;40693;43.884;20.340;2024-01-30T02:14:48;26.40;2201.60
54796;DHT22;40693;43.884;20.340;2024-01-30T02:17:15;26.40;2201.60
54796;DHT22;40693;43.884;20.340;2024-01-30T02:19:41;26.30;2201.60
54796;DHT22;40693;43.884;20.340;2024-01-30T02:22:07;26.30;2201.60
54796;DHT22;40693;43.884;20.340;2024-01-30T02:24:33;26.20;2201.60
54796;DHT22;40693;43.884;20.340;2024-01-30T02:26:59;26.10;2201.60
54796;DHT22;40693;43.884;20.340;2024-01-30T02:29:25;26.00;2201.60
54796;DHT22;40693;43.884;20.340;2024-01-30T02:31:50;26.00;2201.60
54796;DHT22;40693;43.884;20.340;2024-01-30T02:34:16;26.10;2201.60
54796;DHT22;40693;43.884;20.340;2024-01-30T02:36:42;26.10;2201.60
54796;DHT22;40693;43.884;20.340;2024-01-30T02:39:08;26.10;2201.60
54796;DHT22;40693;43.884;20.340;2024-01-30T02:41:35;26.10;2201.60
54796;DHT22;40693;43.884;20.340;2024-01-30T02:44:02;26.10;2201.60
54796;DHT22;40693;43.884;20.340;2024-01-30T02:46:27;26.10;2201.60
54796;DHT22;40693;43.884;20.340;2024-01-30T02:48:53;26.10;2201.60
54796;DHT22;40693;43.884;20.340;2024-01-30T02:51:19;26.10;2201.60
54796;DHT22;40693;43.884;20.340;2024-01-30T02:53:45;26.10;2201.60
54796;DHT22;40693;43.884;20.340;2024-01-30T02:56:11;26.10;2201.60
54796;DHT22;40693;43.884;20.340;2024-01-30T02:58:37;26.00;2201.60
54796;DHT22;40693;43.884;20.340;2024-01-30T03:01:03;26.10;2201.60
54796;DHT22;40693;43.884;20.340;2024-01-30T03:03:29;26.00;2201.60
54796;DHT22;40693;43.884;20.340;2024-01-30T03:05:54;25.90;2201.60
54796;DHT22;40693;43.884;20.340;2024-01-30T03:08:20;25.90;2201.60
54796;DHT22;40693;43.884;20.340;2024-01-30T03:10:46;25.90;2201.60
54796;DHT22;40693;43.884;20.340;2024-01-30T03:13:12;25.90;2201.60
54796;DHT22;40693;43.884;20.340;2024-01-30T03:15:38;25.90;2201.60
54796;DHT22;40693;43.884;20.340;2024-01-30T03:18:04;25.80;2201.60
54796;DHT22;40693;43.884;20.340;2024-01-30T03:20:29;25.90;2201.60
54796;DHT22;40693;43.884;20.340;2024-01-30T03:22:55;25.90;2201.60
54796;DHT22;40693;43.884;20.340;2024-01-30T03:25:21;25.80;2201.60
54796;DHT22;40693;43.884;20.340;2024-01-30T03:27:47;25.80;2201.60
54796;DHT22;40693;43.884;20.340;2024-01-30T03:30:13;25.80;2201.60
54796;DHT22;40693;43.884;20.340;2024-01-30T03:32:39;25.70;2201.60
54796;DHT22;40693;43.884;20.340;2024-01-30T03:35:05;25.80;2201.60
54796;DHT22;40693;43.884;20.340;2024-01-30T03:37:31;25.80;2201.60
54796;DHT22;40693;43.884;20.340;2024-01-30T03:39:57;25.70;2201.60
54796;DHT22;40693;43.884;20.340;2024-01-30T03:42:23;25.70;2201.60
54796;DHT22;40693;43.884;20.340;2024-01-30T03:44:48;25.80;2201.60
54796;DHT22;40693;43.884;20.340;2024-01-30T03:47:17;25.70;2201.60
54796;DHT22;40693;43.884;20.340;2024-01-30T03:49:43;25.70;2201.60
54796;DHT22;40693;43.884;20.340;2024-01-30T03:52:08;25.70;2201.60
54796;DHT22;40693;43.884;20.340;2024-01-30T03:54:34;25.60;2201.60
54796;DHT22;40693;43.884;20.340;2024-01-30T03:57:00;25.60;2201.60
54796;DHT22;40693;43.884;20.340;2024-01-30T03:59:26;25.60;2201.60
54796;DHT22;40693;43.884;20.340;2024-01-30T04:01:51;0.90;2201.60
54796;DHT22;40693;43.884;20.340;2024-01-30T04:04:20;0.80;2201.60
54796;DHT22;40693;43.884;20.340;2024-01-30T04:06:46;0.70;2201.60
54796;DHT22;40693;43.884;20.340;2024-01-30T04:09:13;0.80;2201.60
54796;DHT22;40693;43.884;20.340;2024-01-30T04:11:42;0.80;2201.60
54796;DHT22;40693;43.884;20.340;2024-01-30T04:14:08;0.80;2201.60
54796;DHT22;40693;43.884;20.340;2024-01-30T04:16:34;0.80;2201.60
54796;DHT22;40693;43.884;20.340;2024-01-30T04:19:00;0.80;2201.60
54796;DHT22;40693;43.884;20.340;2024-01-30T04:21:25;0.90;2201.60
54796;DHT22;40693;43.884;20.340;2024-01-30T04:23:51;0.90;2201.60
54796;DHT22;40693;43.884;20.340;2024-01-30T04:26:17;0.80;2201.60
54796;DHT22;40693;43.884;20.340;2024-01-30T04:28:44;0.70;2201.60
54796;DHT22;40693;43.884;20.340;2024-01-30T04:31:11;0.70;2201.60
54796;DHT22;40693;43.884;20.340;2024-01-30T04:33:37;0.70;2201.60
54796;DHT22;40693;43.884;20.340;2024-01-30T04:36:03;0.70;2201.60
54796;DHT22;40693;43.884;20.340;2024-01-30T04:38:29;0.80;2201.60
54796;DHT22;40693;43.884;20.340;2024-01-30T04:40:55;0.80;2201.60
54796;DHT22;40693;43.884;20.340;2024-01-30T04:43:21;0.80;2201.60
54796;DHT22;40693;43.884;20.340;2024-01-30T04:45:47;0.70;2201.60
54796;DHT22;40693;43.884;20.340;2024-01-30T04:48:13;0.70;2201.60
54796;DHT22;40693;43.884;20.340;2024-01-30T04:50:39;0.70;2201.60
54796;DHT22;40693;43.884;20.340;2024-01-30T04:53:05;0.70;2201.60
54796;DHT22;40693;43.884;20.340;2024-01-30T04:55:30;0.60;2201.60
54796;DHT22;40693;43.884;20.340;2024-01-30T04:57:56;0.60;2201.60
54796;DHT22;40693;43.884;20.340;2024-01-30T05:00:22;0.70;2201.60
54796;DHT22;40693;43.884;20.340;2024-01-30T05:02:47;0.60;2201.60
54796;DHT22;40693;43.884;20.340;2024-01-30T05:05:13;0.60;2201.60
54796;DHT22;40693;43.884;20.340;2024-01-30T05:07:41;0.60;2201.60
54796;DHT22;40693;43.884;20.340;2024-01-30T05:10:07;0.60;2201.60
54796;DHT22;40693;43.884;20.340;2024-01-30T05:12:34;0.60;2201.60
54796;DHT22;40693;43.884;20.340;2024-01-30T05:14:59;0.60;2201.60
54796;DHT22;40693;43.884;20.340;2024-01-30T05:17:25;0.60;2201.60
54796;DHT22;40693;43.884;20.340;2024-01-30T05:19:51;0.60;2201.60
54796;DHT22;40693;43.884;20.340;2024-01-30T05:22:16;0.50;2201.60
54796;DHT22;40693;43.884;20.340;2024-01-30T05:24:44;0.60;2201.60
54796;DHT22;40693;43.884;20.340;2024-01-30T05:27:10;0.60;2201.60
54796;DHT22;40693;43.884;20.340;2024-01-30T05:29:39;0.90;2201.60
54796;DHT22;40693;43.884;20.340;2024-01-30T05:32:04;0.60;2201.60
54796;DHT22;40693;43.884;20.340;2024-01-30T05:34:35;0.60;2201.60
54796;DHT22;40693;43.884;20.340;2024-01-30T05:37:01;0.60;2201.60
54796;DHT22;40693;43.884;20.340;2024-01-30T05:39:27;0.60;2201.60
54796;DHT22;40693;43.884;20.340;2024-01-30T05:41:52;0.60;2201.60
54796;DHT22;40693;43.884;20.340;2024-01-30T05:44:18;0.60;2201.60
54796;DHT22;40693;43.884;20.340;2024-01-30T05:46:44;0.60;2201.60
54796;DHT22;40693;43.884;20.340;2024-01-30T05:49:10;0.60;2201.60
54796;DHT22;40693;43.884;20.340;2024-01-30T05:51:35;0.60;2201.60
54796;DHT22;40693;43.884;20.340;2024-01-30T05:54:01;0.50;2201.60
54796;DHT22;40693;43.884;20.340;2024-01-30T05:56:29;25.60;2201.60
54796;DHT22;40693;43.884;20.340;2024-01-30T05:58:55;0.40;2201.60
54796;DHT22;40693;43.884;20.340;2024-01-30T06:01:21;0.40;2201.60
54796;DHT22;40693;43.884;20.340;2024-01-30T06:03:46;0.30;2201.60
54796;DHT22;40693;43.884;20.340;2024-01-30T06:06:12;0.20;2201.60
54796;DHT22;40693;43.884;20.340;2024-01-30T06:08:38;0.20;2201.60
54796;DHT22;40693;43.884;20.340;2024-01-30T06:11:04;0.20;2201.60
54796;DHT22;40693;43.884;20.340;2024-01-30T06:13:29;0.20;2201.60
54796;DHT22;40693;43.884;20.340;2024-01-30T06:15:57;0.30;2201.60
54796;DHT22;40693;43.884;20.340;2024-01-30T06:18:23;0.20;2201.60
54796;DHT22;40693;43.884;20.340;2024-01-30T06:20:49;0.20;2201.60
54796;DHT22;40693;43.884;20.340;2024-01-30T06:23:15;0.20;2201.60
54796;DHT22;40693;43.884;20.340;2024-01-30T06:25:40;0.20;2201.60
54796;DHT22;40693;43.884;20.340;2024-01-30T06:28:06;0.30;2201.60
54796;DHT22;40693;43.884;20.340;2024-01-30T06:30:32;0.30;2201.60
54796;DHT22;40693;43.884;20.340;2024-01-30T06:32:58;0.30;2201.60
54796;DHT22;40693;43.884;20.340;2024-01-30T06:35:24;0.30;2201.60
54796;DHT22;40693;43.884;20.340;2024-01-30T06:37:49;0.30;2201.60
54796;DHT22;40693;43.884;20.340;2024-01-30T06:40:15;0.40;2201.60
54796;DHT22;40693;43.884;20.340;2024-01-30T06:42:41;0.40;2201.60
54796;DHT22;40693;43.884;20.340;2024-01-30T06:45:07;0.40;2201.60
54796;DHT22;40693;43.884;20.340;2024-01-30T06:47:33;0.20;2201.60
54796;DHT22;40693;43.884;20.340;2024-01-30T06:49:59;0.50;2201.60
54796;DHT22;40693;43.884;20.340;2024-01-30T06:52:25;0.60;2201.60
54796;DHT22;40693;43.884;20.340;2024-01-30T06:54:51;0.60;2201.60
54796;DHT22;40693;43.884;20.340;2024-01-30T06:57:16;0.60;2201.60
54796;DHT22;40693;43.884;20.340;2024-01-30T06:59:42;0.70;2201.60
54796;DHT22;40693;43.884;20.340;2024-01-30T07:02:12;0.80;2201.60
54796;DHT22;40693;43.884;20.340;2024-01-30T07:04:37;0.80;2201.60
54796;DHT22;40693;43.884;20.340;2024-01-30T07:07:04;0.80;2201.60
54796;DHT22;40693;43.884;20.340;2024-01-30T07:09:31;0.90;2201.60
54796;DHT22;40693;43.884;20.340;2024-01-30T07:11:57;25.60;2201.60
54796;DHT22;40693;43.884;20.340;2024-01-30T07:14:25;25.70;2201.60
54796;DHT22;40693;43.884;20.340;2024-01-30T07:16:51;25.70;2201.60
54796;DHT22;40693;43.884;20.340;2024-01-30T07:19:17;25.80;2201.60
54796;DHT22;40693;43.884;20.340;2024-01-30T07:21:42;25.90;2201.60
54796;DHT22;40693;43.884;20.340;2024-01-30T07:24:08;26.00;2201.60
54796;DHT22;40693;43.884;20.340;2024-01-30T07:26:34;26.10;2201.60
54796;DHT22;40693;43.884;20.340;2024-01-30T07:29:07;26.10;2201.60
54796;DHT22;40693;43.884;20.340;2024-01-30T07:31:33;26.20;2201.60
54796;DHT22;40693;43.884;20.340;2024-01-30T07:33:59;26.40;2201.60
54796;DHT22;40693;43.884;20.340;2024-01-30T07:36:28;26.50;2201.60
54796;DHT22;40693;43.884;20.340;2024-01-30T07:38:54;26.50;2201.60
54796;DHT22;40693;43.884;20.340;2024-01-30T07:41:20;51.20;2227.20
54796;DHT22;40693;43.884;20.340;2024-01-30T07:43:49;51.30;2227.20
54796;DHT22;40693;43.884;20.340;2024-01-30T07:46:16;51.50;2227.20
54796;DHT22;40693;43.884;20.340;2024-01-30T07:48:42;51.50;2227.20
54796;DHT22;40693;43.884;20.340;2024-01-30T07:51:07;51.70;2227.20
54796;DHT22;40693;43.884;20.340;2024-01-30T07:53:33;51.80;2227.20
54796;DHT22;40693;43.884;20.340;2024-01-30T07:55:59;52.00;2227.20
54796;DHT22;40693;43.884;20.340;2024-01-30T07:58:25;52.10;2227.20
54796;DHT22;40693;43.884;20.340;2024-01-30T08:00:53;76.90;2227.20
54796;DHT22;40693;43.884;20.340;2024-01-30T08:03:19;77.00;2227.20
54796;DHT22;40693;43.884;20.340;2024-01-30T08:05:44;76.90;2227.20
54796;DHT22;40693;43.884;20.340;2024-01-30T08:08:10;77.00;2227.20
54796;DHT22;40693;43.884;20.340;2024-01-30T08:10:36;77.10;2227.20
54796;DHT22;40693;43.884;20.340;2024-01-30T08:13:02;77.10;2227.20
54796;DHT22;40693;43.884;20.340;2024-01-30T08:15:28;77.10;2227.20
54796;DHT22;40693;43.884;20.340;2024-01-30T08:17:53;77.30;2227.20
54796;DHT22;40693;43.884;20.340;2024-01-30T08:20:24;77.40;2227.20
54796;DHT22;40693;43.884;20.340;2024-01-30T08:22:50;77.50;2227.20
54796;DHT22;40693;43.884;20.340;2024-01-30T08:25:15;77.70;2227.20
54796;DHT22;40693;43.884;20.340;2024-01-30T08:27:41;102.50;2227.20
54796;DHT22;40693;43.884;20.340;2024-01-30T08:30:07;102.70;2227.20
54796;DHT22;40693;43.884;20.340;2024-01-30T08:32:33;102.90;2227.20
54796;DHT22;40693;43.884;20.340;2024-01-30T08:34:59;103.00;2227.20
54796;DHT22;40693;43.884;20.340;2024-01-30T08:37:25;103.20;2227.20
54796;DHT22;40693;43.884;20.340;2024-01-30T08:39:51;128.00;2252.80
54796;DHT22;40693;43.884;20.340;2024-01-30T08:42:17;128.10;2252.80
54796;DHT22;40693;43.884;20.340;2024-01-30T08:44:51;128.20;2252.80
54796;DHT22;40693;43.884;20.340;2024-01-30T08:47:17;128.10;2252.80
54796;DHT22;40693;43.884;20.340;2024-01-30T08:49:44;128.30;2252.80
54796;DHT22;40693;43.884;20.340;2024-01-30T08:52:12;128.60;2252.80
54796;DHT22;40693;43.884;20.340;2024-01-30T08:54:38;128.70;2252.80
54796;DHT22;40693;43.884;20.340;2024-01-30T08:57:04;128.70;2252.80
54796;DHT22;40693;43.884;20.340;2024-01-30T08:59:30;128.80;2252.80
54796;DHT22;40693;43.884;20.340;2024-01-30T09:01:56;128.90;2252.80
54796;DHT22;40693;43.884;20.340;2024-01-30T09:04:23;153.70;2252.80
54796;DHT22;40693;43.884;20.340;2024-01-30T09:06:49;154.00;2252.80
54796;DHT22;40693;43.884;20.340;2024-01-30T09:09:15;154.20;2252.80
54796;DHT22;40693;43.884;20.340;2024-01-30T09:11:41;154.20;2252.80
54796;DHT22;40693;43.884;20.340;2024-01-30T09:14:07;154.30;2252.80
54796;DHT22;40693;43.884;20.340;2024-01-30T09:16:33;154.50;2252.80
54796;DHT22;40693;43.884;20.340;2024-01-30T09:18:59;179.30;2252.80
54796;DHT22;40693;43.884;20.340;2024-01-30T09:21:25;179.40;2252.80
54796;DHT22;40693;43.884;20.340;2024-01-30T09:23:54;179.70;2252.80
54796;DHT22;40693;43.884;20.340;2024-01-30T09:26:20;179.90;2252.80
54796;DHT22;40693;43.884;20.340;2024-01-30T09:28:45;180.00;2252.80
54796;DHT22;40693;43.884;20.340;2024-01-30T09:31:14;204.80;2252.80
54796;DHT22;40693;43.884;20.340;2024-01-30T09:33:40;205.00;2252.80
54796;DHT22;40693;43.884;20.340;2024-01-30T09:36:07;205.40;2252.80
54796;DHT22;40693;43.884;20.340;2024-01-30T09:38:33;205.50;2252.80
54796;DHT22;40693;43.884;20.340;2024-01-30T09:41:03;230.50;2176.00
54796;DHT22;40693;43.884;20.340;2024-01-30T09:43:33;231.10;2124.80
54796;DHT22;40693;43.884;20.340;2024-01-30T09:46:02;256.60;2048.00
54796;DHT22;40693;43.884;20.340;2024-01-30T09:48:30;282.20;1971.20
54796;DHT22;40693;43.884;20.340;2024-01-30T09:50:57;307.80;1894.40
54796;DHT22;40693;43.884;20.340;2024-01-30T09:53:24;333.30;1817.60
54796;DHT22;40693;43.884;20.340;2024-01-30T09:55:50;358.40;1792.00
54796;DHT22;40693;43.884;20.340;2024-01-30T09:58:16;333.50;1817.60
54796;DHT22;40693;43.884;20.340;2024-01-30T10:00:42;358.40;1740.80
54796;DHT22;40693;43.884;20.340;2024-01-30T10:03:09;333.60;1715.20
54796;DHT22;40693;43.884;20.340;2024-01-30T10:05:36;333.50;1715.20
54796;DHT22;40693;43.884;20.340;2024-01-30T10:08:06;333.40;1689.60
54796;DHT22;40693;43.884;20.340;2024-01-30T10:10:35;333.50;1689.60
54796;DHT22;40693;43.884;20.340;2024-01-30T10:13:01;332.90;1689.60
54796;DHT22;40693;43.884;20.340;2024-01-30T10:15:28;307.70;1689.60
54796;DHT22;40693;43.884;20.340;2024-01-30T10:17:54;307.60;1715.20
54796;DHT22;40693;43.884;20.340;2024-01-30T10:20:20;307.50;1715.20
54796;DHT22;40693;43.884;20.340;2024-01-30T10:22:47;307.70;1689.60
54796;DHT22;40693;43.884;20.340;2024-01-30T10:25:13;307.60;1689.60
54796;DHT22;40693;43.884;20.340;2024-01-30T10:27:42;307.30;1689.60
54796;DHT22;40693;43.884;20.340;2024-01-30T10:30:08;282.40;1664.00
54796;DHT22;40693;43.884;20.340;2024-01-30T10:32:34;282.10;1689.60
54796;DHT22;40693;43.884;20.340;2024-01-30T10:34:59;282.20;1664.00
54796;DHT22;40693;43.884;20.340;2024-01-30T10:37:26;282.10;1664.00
54796;DHT22;40693;43.884;20.340;2024-01-30T10:39:56;282.20;1664.00
54796;DHT22;40693;43.884;20.340;2024-01-30T10:42:26;282.10;1664.00
54796;DHT22;40693;43.884;20.340;2024-01-30T10:45:15;282.00;1664.00
54796;DHT22;40693;43.884;20.340;2024-01-30T10:47:49;282.00;1664.00
54796;DHT22;40693;43.884;20.340;2024-01-30T10:50:15;282.20;1715.20
54796;DHT22;40693;43.884;20.340;2024-01-30T10:52:42;282.40;1664.00
54796;DHT22;40693;43.884;20.340;2024-01-30T10:55:08;282.50;1664.00
54796;DHT22;40693;43.884;20.340;2024-01-30T10:57:37;307.30;1715.20
54796;DHT22;40693;43.884;20.340;2024-01-30T11:00:08;307.60;1689.60
54796;DHT22;40693;43.884;20.340;2024-01-30T11:02:42;307.80;1689.60
54796;DHT22;40693;43.884;20.340;2024-01-30T11:05:09;307.80;1664.00
54796;DHT22;40693;43.884;20.340;2024-01-30T11:07:35;307.70;1536.00
54796;DHT22;40693;43.884;20.340;2024-01-30T11:10:03;307.80;1587.20
54796;DHT22;40693;43.884;20.340;2024-01-30T11:12:33;307.90;1536.00
54796;DHT22;40693;43.884;20.340;2024-01-30T11:15:11;307.70;1484.80
54796;DHT22;40693;43.884;20.340;2024-01-30T11:17:53;307.70;1536.00
54796;DHT22;40693;43.884;20.340;2024-01-30T11:20:30;307.40;1536.00
54796;DHT22;40693;43.884;20.340;2024-01-30T11:23:01;307.60;1536.00
54796;DHT22;40693;43.884;20.340;2024-01-30T11:25:32;307.20;1484.80
54796;DHT22;40693;43.884;20.340;2024-01-30T11:27:58;307.50;1510.40
54796;DHT22;40693;43.884;20.340;2024-01-30T11:30:28;307.60;1536.00
54796;DHT22;40693;43.884;20.340;2024-01-30T11:33:09;307.70;1510.40
54796;DHT22;40693;43.884;20.340;2024-01-30T11:35:41;307.60;1510.40
54796;DHT22;40693;43.884;20.340;2024-01-30T11:38:16;307.90;1536.00
54796;DHT22;40693;43.884;20.340;2024-01-30T11:40:43;308.10;1484.80
54796;DHT22;40693;43.884;20.340;2024-01-30T11:43:09;308.10;1484.80
54796;DHT22;40693;43.884;20.340;2024-01-30T11:45:36;308.10;1484.80
54796;DHT22;40693;43.884;20.340;2024-01-30T11:48:02;308.10;1484.80
54796;DHT22;40693;43.884;20.340;2024-01-30T11:50:33;308.10;1536.00
54796;DHT22;40693;43.884;20.340;2024-01-30T11:53:00;333.00;1536.00
54796;DHT22;40693;43.884;20.340;2024-01-30T11:55:26;333.00;1484.80
54796;DHT22;40693;43.884;20.340;2024-01-30T11:57:55;333.40;1459.20
54796;DHT22;40693;43.884;20.340;2024-01-30T12:00:21;333.50;1433.60
54796;DHT22;40693;43.884;20.340;2024-01-30T12:02:52;333.20;1382.40
54796;DHT22;40693;43.884;20.340;2024-01-30T12:05:21;333.20;1382.40
54796;DHT22;40693;43.884;20.340;2024-01-30T12:07:47;333.30;1356.80
54796;DHT22;40693;43.884;20.340;2024-01-30T12:10:14;333.40;1459.20
54796;DHT22;40693;43.884;20.340;2024-01-30T12:12:45;358.50;1766.40
54796;DHT22;40693;43.884;20.340;2024-01-30T12:15:11;358.90;1587.20
54796;DHT22;40693;43.884;20.340;2024-01-30T12:17:37;359.10;1459.20
54796;DHT22;40693;43.884;20.340;2024-01-30T12:20:11;359.00;1305.60
54796;DHT22;40693;43.884;20.340;2024-01-30T12:22:47;358.90;1305.60
54796;DHT22;40693;43.884;20.340;2024-01-30T12:25:18;358.80;1331.20
54796;DHT22;40693;43.884;20.340;2024-01-30T12:27:48;358.80;1331.20
54796;DHT22;40693;43.884;20.340;2024-01-30T12:30:18;358.80;1254.40
54796;DHT22;40693;43.884;20.340;2024-01-30T12:32:46;358.60;1228.80
54796;DHT22;40693;43.884;20.340;2024-01-30T12:35:14;358.70;1254.40
54796;DHT22;40693;43.884;20.340;2024-01-30T12:37:41;358.80;1228.80
54796;DHT22;40693;43.884;20.340;2024-01-30T12:40:08;358.90;1228.80
54796;DHT22;40693;43.884;20.340;2024-01-30T12:42:35;359.00;1254.40
54796;DHT22;40693;43.884;20.340;2024-01-30T12:45:05;359.10;1254.40
54796;DHT22;40693;43.884;20.340;2024-01-30T12:47:31;359.10;1228.80
54796;DHT22;40693;43.884;20.340;2024-01-30T12:49:57;359.00;1228.80
54796;DHT22;40693;43.884;20.340;2024-01-30T12:52:24;359.00;1203.20
54796;DHT22;40693;43.884;20.340;2024-01-30T12:54:50;359.00;1228.80
54796;DHT22;40693;43.884;20.340;2024-01-30T12:57:17;358.80;1228.80
54796;DHT22;40693;43.884;20.340;2024-01-30T12:59:44;359.00;1228.80
54796;DHT22;40693;43.884;20.340;2024-01-30T13:02:10;359.00;1203.20
54796;DHT22;40693;43.884;20.340;2024-01-30T13:04:36;358.60;1228.80
54796;DHT22;40693;43.884;20.340;2024-01-30T13:07:02;358.50;1228.80
54796;DHT22;40693;43.884;20.340;2024-01-30T13:09:29;333.50;1254.40
54796;DHT22;40693;43.884;20.340;2024-01-30T13:11:55;333.60;1280.00
54796;DHT22;40693;43.884;20.340;2024-01-30T13:14:21;333.30;1280.00
54796;DHT22;40693;43.884;20.340;2024-01-30T13:16:47;333.10;1280.00
54796;DHT22;40693;43.884;20.340;2024-01-30T13:19:13;333.00;1305.60
54796;DHT22;40693;43.884;20.340;2024-01-30T13:21:39;333.00;1305.60
54796;DHT22;40693;43.884;20.340;2024-01-30T13:24:05;333.20;1280.00
54796;DHT22;40693;43.884;20.340;2024-01-30T13:26:34;333.10;1280.00
54796;DHT22;40693;43.884;20.340;2024-01-30T13:28:59;333.00;1280.00
54796;DHT22;40693;43.884;20.340;2024-01-30T13:31:25;333.10;1305.60
54796;DHT22;40693;43.884;20.340;2024-01-30T13:33:53;333.50;1305.60
54796;DHT22;40693;43.884;20.340;2024-01-30T13:36:19;333.40;1280.00
54796;DHT22;40693;43.884;20.340;2024-01-30T13:38:45;333.20;1280.00
54796;DHT22;40693;43.884;20.340;2024-01-30T13:41:10;332.90;1280.00
54796;DHT22;40693;43.884;20.340;2024-01-30T13:43:36;332.80;1305.60
54796;DHT22;40693;43.884;20.340;2024-01-30T13:46:02;332.90;1305.60
54796;DHT22;40693;43.884;20.340;2024-01-30T13:48:28;333.10;1305.60
54796;DHT22;40693;43.884;20.340;2024-01-30T13:50:55;333.30;1305.60
54796;DHT22;40693;43.884;20.340;2024-01-30T13:53:21;333.40;1254.40
54796;DHT22;40693;43.884;20.340;2024-01-30T13:55:47;333.40;1280.00
54796;DHT22;40693;43.884;20.340;2024-01-30T13:58:12;333.60;1254.40
54796;DHT22;40693;43.884;20.340;2024-01-30T14:00:38;333.60;1433.60
54796;DHT22;40693;43.884;20.340;2024-01-30T14:03:04;358.50;1638.40
54796;DHT22;40693;43.884;20.340;2024-01-30T14:05:30;358.60;1408.00
54796;DHT22;40693;43.884;20.340;2024-01-30T14:07:57;358.50;1536.00
54796;DHT22;40693;43.884;20.340;2024-01-30T14:10:24;358.50;1254.40
54796;DHT22;40693;43.884;20.340;2024-01-30T14:12:50;333.60;1254.40
54796;DHT22;40693;43.884;20.340;2024-01-30T14:15:16;333.40;1254.40
54796;DHT22;40693;43.884;20.340;2024-01-30T14:17:45;332.90;1280.00
54796;DHT22;40693;43.884;20.340;2024-01-30T14:20:13;332.80;1305.60
54796;DHT22;40693;43.884;20.340;2024-01-30T14:22:38;333.00;1331.20
54796;DHT22;40693;43.884;20.340;2024-01-30T14:25:05;333.20;1305.60
54796;DHT22;40693;43.884;20.340;2024-01-30T14:27:31;333.30;1305.60
54796;DHT22;40693;43.884;20.340;2024-01-30T14:29:57;333.20;1280.00
54796;DHT22;40693;43.884;20.340;2024-01-30T14:32:24;332.80;1305.60
54796;DHT22;40693;43.884;20.340;2024-01-30T14:34:50;333.10;1305.60
54796;DHT22;40693;43.884;20.340;2024-01-30T14:37:18;333.20;1305.60
54796;DHT22;40693;43.884;20.340;2024-01-30T14:39:44;333.20;1280.00
54796;DHT22;40693;43.884;20.340;2024-01-30T14:42:10;333.20;1280.00